Time;durP1;ratioP1;P1;durP2;ratioP2;P2;SDS_P1;SDS_P2;PMS_P1;PMS_P2;Temp;Humidity;BMP_temperature;BMP_pressure;BME280_temperature;BME280_humidity;BME280_pressure;Samples;Min_cycle;Max_cycle;Signal;HPM_P1;HPM_P2
2023/02/28 00:00:08;;;;;;;7.38;5.75;;;-2.30;99.90;;;;;;5095628;28;20061;-65
2023/02/28 00:02:40;;;;;;;9.02;5.90;;;-2.30;99.90;;;;;;5102928;28;20147;-68
2023/02/28 00:05:10;;;;;;;9.57;6.03;;;-2.20;99.90;;;;;;5095780;28;20040;-68
2023/02/28 00:07:37;;;;;;;10.90;6.68;;;-2.30;99.90;;;;;;5090638;28;20471;-68
2023/02/28 00:10:08;;;;;;;10.00;6.45;;;-2.20;99.90;;;;;;5100886;28;20070;-68
2023/02/28 00:12:36;;;;;;;8.45;5.95;;;-2.30;99.90;;;;;;5091161;28;20059;-69
2023/02/28 00:15:10;;;;;;;8.82;6.10;;;-2.20;99.90;;;;;;5091207;28;20135;-69
2023/02/28 00:17:38;;;;;;;11.00;5.78;;;-2.20;99.90;;;;;;5085107;28;20135;-69
2023/02/28 00:20:08;;;;;;;8.27;5.75;;;-2.20;99.90;;;;;;5083295;28;20558;-69
2023/02/28 00:22:43;;;;;;;8.63;6.22;;;-2.20;99.90;;;;;;5093359;28;20455;-69
2023/02/28 00:25:13;;;;;;;7.97;6.15;;;-2.20;99.90;;;;;;5091402;28;20040;-69
2023/02/28 00:27:41;;;;;;;10.18;6.55;;;-2.20;99.90;;;;;;5089991;28;20083;-65
2023/02/28 00:30:13;;;;;;;11.52;7.03;;;-2.20;99.90;;;;;;5091154;28;20036;-66
2023/02/28 00:32:41;;;;;;;13.70;7.18;;;-2.20;99.90;;;;;;5103134;28;20042;-65
2023/02/28 00:35:09;;;;;;;9.90;6.30;;;-2.20;99.90;;;;;;5090323;28;20036;-65
2023/02/28 00:37:37;;;;;;;12.05;6.93;;;-2.10;99.90;;;;;;5096503;28;20048;-66
2023/02/28 00:40:06;;;;;;;10.98;6.95;;;-2.20;99.90;;;;;;5090734;28;20036;-66
2023/02/28 00:42:34;;;;;;;13.27;6.57;;;-2.20;99.90;;;;;;5096158;28;20205;-66
2023/02/28 00:45:07;;;;;;;11.05;6.65;;;-2.20;99.90;;;;;;5092819;28;20051;-66
2023/02/28 00:47:37;;;;;;;7.95;6.20;;;-2.20;99.90;;;;;;5073012;28;20074;-65
2023/02/28 00:50:05;;;;;;;12.55;6.63;;;-2.20;99.90;;;;;;5090891;28;20131;-65
2023/02/28 00:52:36;;;;;;;12.23;6.70;;;-2.20;99.90;;;;;;5088817;28;20101;-63
2023/02/28 00:55:03;;;;;;;10.40;7.10;;;-2.20;99.90;;;;;;5089409;28;20455;-64
2023/02/28 00:57:32;;;;;;;9.77;6.60;;;-2.20;99.90;;;;;;5090470;28;20491;-63
2023/02/28 00:59:59;;;;;;;9.68;6.65;;;-2.20;99.90;;;;;;5090387;28;20186;-63
2023/02/28 01:02:27;;;;;;;8.63;6.40;;;-2.20;99.90;;;;;;5088008;28;20036;-64
2023/02/28 01:04:54;;;;;;;10.75;6.68;;;-2.20;99.90;;;;;;5093722;28;20040;-63
2023/02/28 01:07:21;;;;;;;11.50;6.72;;;-2.20;99.90;;;;;;5090828;28;20044;-64
2023/02/28 01:09:48;;;;;;;10.43;6.32;;;-2.20;99.90;;;;;;5090315;28;20457;-63
2023/02/28 01:12:17;;;;;;;10.60;6.32;;;-2.20;99.90;;;;;;5089748;28;20142;-64
2023/02/28 01:14:46;;;;;;;13.30;7.43;;;-2.20;99.90;;;;;;5089199;28;20032;-63
2023/02/28 01:17:13;;;;;;;10.73;6.78;;;-2.20;99.90;;;;;;5088802;28;20481;-64
2023/02/28 01:19:41;;;;;;;9.73;6.22;;;-2.20;99.90;;;;;;5094609;28;20122;-64
2023/02/28 01:22:09;;;;;;;9.52;6.60;;;-2.20;99.90;;;;;;5089808;28;20462;-63
2023/02/28 01:24:37;;;;;;;11.00;6.65;;;-2.20;99.90;;;;;;5089359;28;20169;-64
2023/02/28 01:27:04;;;;;;;10.82;6.13;;;-2.20;99.90;;;;;;5071628;28;20064;-62
2023/02/28 01:29:32;;;;;;;9.93;6.32;;;-2.10;99.90;;;;;;5087740;28;20566;-63
2023/02/28 01:31:59;;;;;;;10.93;6.78;;;-2.20;99.90;;;;;;5089157;28;20040;-63
2023/02/28 01:34:26;;;;;;;11.32;6.15;;;-2.20;99.90;;;;;;5092602;28;20035;-63
2023/02/28 01:36:53;;;;;;;11.35;6.03;;;-2.20;99.90;;;;;;5109953;28;20501;-63
2023/02/28 01:39:21;;;;;;;8.07;6.63;;;-2.20;99.90;;;;;;5094615;28;20043;-63
2023/02/28 01:41:49;;;;;;;9.00;6.45;;;-2.20;99.90;;;;;;5095817;28;20047;-66
2023/02/28 01:44:55;;;;;;;12.63;6.25;;;-2.20;99.90;;;;;;5105178;28;20403;-65
2023/02/28 01:47:24;;;;;;;10.70;6.85;;;-2.20;99.90;;;;;;5087909;28;20044;-63
2023/02/28 01:49:52;;;;;;;10.40;6.40;;;-2.20;99.90;;;;;;5087875;28;20040;-63
2023/02/28 01:52:20;;;;;;;10.07;6.07;;;-2.20;99.90;;;;;;5087508;28;20044;-64
2023/02/28 01:54:53;;;;;;;10.60;6.25;;;-2.20;99.90;;;;;;5092367;28;20494;-63
2023/02/28 01:57:28;;;;;;;12.05;6.50;;;-2.20;99.90;;;;;;5091387;28;20410;-63
2023/02/28 02:00:00;;;;;;;10.77;6.43;;;-2.20;99.90;;;;;;5092966;28;20391;-64
2023/02/28 02:02:29;;;;;;;10.98;6.82;;;-2.20;99.90;;;;;;5092434;28;20056;-65
2023/02/28 02:05:08;;;;;;;10.45;6.68;;;-2.20;99.90;;;;;;5092993;28;20328;-64
2023/02/28 02:07:39;;;;;;;9.20;6.32;;;-2.20;99.90;;;;;;5093905;28;20054;-63
2023/02/28 02:10:15;;;;;;;10.88;6.65;;;-2.20;99.90;;;;;;5091917;28;20398;-64
2023/02/28 02:13:05;;;;;;;9.88;6.13;;;-2.20;99.90;;;;;;5094943;28;20066;-64
2023/02/28 02:15:41;;;;;;;11.38;7.28;;;-2.20;99.90;;;;;;5106322;28;20050;-68
2023/02/28 02:18:33;;;;;;;9.48;6.63;;;-2.20;99.90;;;;;;5112727;28;20035;-66
2023/02/28 02:21:37;;;;;;;9.90;6.70;;;-2.20;99.90;;;;;;5099964;28;20052;-66
2023/02/28 02:24:13;;;;;;;11.57;7.00;;;-2.20;99.90;;;;;;5095274;28;20507;-66
2023/02/28 02:27:02;;;;;;;12.20;6.95;;;-2.20;99.90;;;;;;5092523;28;20055;-66
2023/02/28 02:30:15;;;;;;;9.73;6.78;;;-2.30;99.90;;;;;;5095332;28;20315;-66
2023/02/28 02:33:16;;;;;;;11.07;6.57;;;-2.40;99.90;;;;;;5046105;28;20480;-65
2023/02/28 02:36:03;;;;;;;10.93;6.50;;;-2.30;99.90;;;;;;4995739;28;20053;-66
2023/02/28 02:38:30;;;;;;;12.18;7.50;;;-2.30;99.90;;;;;;5012671;28;20437;-66
2023/02/28 02:41:12;;;;;;;9.93;6.95;;;-2.30;99.90;;;;;;4996941;28;20067;-66
2023/02/28 02:43:53;;;;;;;10.63;6.50;;;-2.30;99.90;;;;;;5028959;28;20049;-66
2023/02/28 02:46:39;;;;;;;8.30;6.20;;;-2.30;99.90;;;;;;5037321;28;20516;-65
2023/02/28 02:49:16;;;;;;;9.25;6.85;;;-2.40;99.90;;;;;;5028136;28;20045;-65
2023/02/28 02:51:45;;;;;;;13.15;7.32;;;-2.40;99.90;;;;;;5029555;28;20051;-65
2023/02/28 02:54:22;;;;;;;12.73;7.18;;;-2.40;99.90;;;;;;5028681;28;20045;-65
2023/02/28 02:56:51;;;;;;;14.43;7.68;;;-2.40;99.90;;;;;;5018986;28;20136;-65
2023/02/28 02:59:23;;;;;;;10.90;7.10;;;-2.50;99.90;;;;;;5029574;28;20053;-65
2023/02/28 03:01:55;;;;;;;14.73;7.93;;;-2.40;99.90;;;;;;5034408;28;20494;-65
2023/02/28 03:04:26;;;;;;;11.30;6.78;;;-2.50;99.90;;;;;;5012410;28;20457;-65
2023/02/28 03:06:54;;;;;;;12.88;7.35;;;-2.40;99.90;;;;;;5026758;28;20136;-65
2023/02/28 03:09:23;;;;;;;12.48;7.82;;;-2.50;99.90;;;;;;5093090;28;20139;-65
2023/02/28 03:11:53;;;;;;;9.98;7.35;;;-2.50;99.90;;;;;;5090973;28;20040;-65
2023/02/28 03:15:01;;;;;;;11.73;7.32;;;-2.50;99.90;;;;;;5090246;28;20527;-64
2023/02/28 03:17:52;;;;;;;11.00;7.53;;;-2.50;99.90;;;;;;5024425;28;20049;-66
2023/02/28 03:20:45;;;;;;;10.35;6.70;;;-2.40;99.90;;;;;;5028460;28;20468;-66
2023/02/28 03:23:27;;;;;;;12.50;7.85;;;-2.40;99.90;;;;;;5028239;28;20068;-66
2023/02/28 03:26:07;;;;;;;12.68;7.90;;;-2.40;99.90;;;;;;5029116;28;20496;-65
2023/02/28 03:28:45;;;;;;;10.00;7.25;;;-2.40;99.90;;;;;;5012935;28;20058;-65
2023/02/28 03:31:29;;;;;;;13.10;7.40;;;-2.40;99.90;;;;;;5029064;28;20052;-66
2023/02/28 03:34:03;;;;;;;13.35;7.95;;;-2.50;99.90;;;;;;5036323;28;20555;-65
2023/02/28 03:36:43;;;;;;;13.63;8.10;;;-2.50;99.90;;;;;;5035793;28;20052;-65
2023/02/28 03:39:28;;;;;;;16.27;8.35;;;-2.50;99.90;;;;;;5047144;28;20045;-66
2023/02/28 03:42:00;;;;;;;14.10;8.40;;;-2.50;99.90;;;;;;5042319;28;20204;-65
2023/02/28 03:44:30;;;;;;;;;;;-2.60;99.90;;;;;;5044468;28;20048;-65
2023/02/28 03:47:17;;;;;;;16.75;8.73;;;-2.60;99.90;;;;;;5046534;28;19931;-66
2023/02/28 03:50:07;;;;;;;12.60;8.93;;;-2.60;99.90;;;;;;5090215;28;20120;-65
2023/02/28 03:52:41;;;;;;;13.30;8.32;;;-2.60;99.90;;;;;;5088950;28;20578;-65
2023/02/28 03:55:12;;;;;;;13.38;8.40;;;-2.60;99.90;;;;;;5072603;28;20051;-65
2023/02/28 03:58:02;;;;;;;14.45;8.23;;;-2.60;99.90;;;;;;5097642;28;20055;-66
2023/02/28 04:00:38;;;;;;;12.98;8.27;;;-2.60;99.90;;;;;;5108972;28;20401;-64
2023/02/28 04:03:06;;;;;;;15.05;9.02;;;-2.60;99.90;;;;;;5095320;28;20315;-66
2023/02/28 04:05:44;;;;;;;16.30;8.85;;;-2.60;99.90;;;;;;5096227;28;20387;-65
2023/02/28 04:08:11;;;;;;;14.65;8.55;;;-2.60;99.90;;;;;;5089608;28;20554;-64
2023/02/28 04:10:39;;;;;;;14.32;8.48;;;-2.60;99.90;;;;;;5089853;28;20422;-65
2023/02/28 04:13:06;;;;;;;14.90;9.07;;;-2.50;99.90;;;;;;5089443;28;20036;-65
2023/02/28 04:15:33;;;;;;;10.35;7.80;;;-2.50;99.90;;;;;;5090966;28;20487;-65
2023/02/28 04:18:01;;;;;;;12.40;8.32;;;-2.60;99.90;;;;;;5090102;28;20098;-64
2023/02/28 04:20:28;;;;;;;12.55;8.98;;;-2.60;99.90;;;;;;5090793;28;20536;-65
2023/02/28 04:22:55;;;;;;;13.88;8.60;;;-2.60;99.90;;;;;;5089414;28;20039;-65
2023/02/28 04:25:22;;;;;;;13.40;9.48;;;-2.60;99.90;;;;;;5110583;28;20508;-65
2023/02/28 04:27:50;;;;;;;14.18;9.07;;;-2.60;99.90;;;;;;5099380;28;20529;-66
2023/02/28 04:30:17;;;;;;;15.23;9.77;;;-2.50;99.90;;;;;;5091022;28;20517;-66
2023/02/28 04:32:44;;;;;;;14.57;9.88;;;-2.50;99.90;;;;;;5088724;28;20487;-65
2023/02/28 04:35:11;;;;;;;17.58;10.23;;;-2.50;99.90;;;;;;5088074;28;20550;-66
2023/02/28 04:37:39;;;;;;;18.25;11.48;;;-2.50;99.90;;;;;;5089044;28;20043;-68
2023/02/28 04:40:07;;;;;;;21.35;11.60;;;-2.50;99.90;;;;;;5089037;28;20051;-66
2023/02/28 04:42:35;;;;;;;20.15;11.70;;;-2.50;99.90;;;;;;5107414;28;20046;-66
2023/02/28 04:45:04;;;;;;;19.55;11.10;;;-2.50;99.90;;;;;;5103820;28;20043;-67
2023/02/28 04:47:31;;;;;;;18.00;9.90;;;-2.50;99.90;;;;;;5101347;28;20368;-65
2023/02/28 04:49:58;;;;;;;18.33;10.45;;;-2.50;99.90;;;;;;5109389;28;20042;-66
2023/02/28 04:52:27;;;;;;;20.05;10.98;;;-2.40;99.90;;;;;;5101014;28;20071;-66
2023/02/28 04:54:54;;;;;;;16.10;9.35;;;-2.40;99.90;;;;;;5088940;28;20415;-65
2023/02/28 04:57:22;;;;;;;14.57;9.55;;;-2.40;99.90;;;;;;5095638;28;20100;-66
2023/02/28 04:59:49;;;;;;;14.40;9.38;;;-2.40;99.90;;;;;;5109591;28;20047;-65
2023/02/28 05:02:17;;;;;;;16.58;9.90;;;-2.40;99.90;;;;;;5103303;28;20040;-66
2023/02/28 05:04:44;;;;;;;14.05;9.02;;;-2.40;99.90;;;;;;5096091;28;20087;-65
2023/02/28 05:07:11;;;;;;;14.15;8.73;;;-2.40;99.90;;;;;;5100132;28;20489;-65
2023/02/28 05:09:39;;;;;;;14.88;8.98;;;-2.30;99.90;;;;;;5096352;28;20123;-65
2023/02/28 05:12:06;;;;;;;15.35;9.40;;;-2.30;99.90;;;;;;5086695;28;20044;-65
2023/02/28 05:14:33;;;;;;;13.85;9.13;;;-2.20;99.90;;;;;;5088721;28;20032;-65
2023/02/28 05:17:01;;;;;;;16.85;8.98;;;-2.30;99.90;;;;;;5089896;28;20573;-65
2023/02/28 05:19:28;;;;;;;14.60;8.82;;;-2.30;99.90;;;;;;5087625;28;20443;-63
2023/02/28 05:21:55;;;;;;;12.57;8.65;;;-2.20;99.90;;;;;;5087083;28;20048;-65
2023/02/28 05:24:23;;;;;;;14.95;9.18;;;-2.20;99.90;;;;;;5087372;28;20067;-67
2023/02/28 05:26:53;;;;;;;12.10;8.73;;;-2.20;99.90;;;;;;5089941;28;20044;-65
2023/02/28 05:29:21;;;;;;;11.77;8.10;;;-2.30;99.90;;;;;;5087700;28;20393;-65
2023/02/28 05:31:48;;;;;;;14.15;9.02;;;-2.30;99.90;;;;;;5089779;28;20486;-65
2023/02/28 05:34:15;;;;;;;13.30;9.27;;;-2.30;99.90;;;;;;5096211;28;20043;-64
2023/02/28 05:36:43;;;;;;;14.43;8.65;;;-2.30;99.90;;;;;;5108750;28;20120;-63
2023/02/28 05:39:12;;;;;;;16.77;9.10;;;-2.30;99.90;;;;;;5109121;28;20409;-64
2023/02/28 05:41:42;;;;;;;16.88;9.75;;;-2.30;99.90;;;;;;5110228;28;20417;-65
2023/02/28 05:44:09;;;;;;;16.80;9.32;;;-2.30;99.90;;;;;;5102079;28;20511;-66
2023/02/28 05:46:38;;;;;;;14.25;9.57;;;-2.20;99.90;;;;;;5109058;28;20044;-65
2023/02/28 05:49:05;;;;;;;16.20;9.70;;;-2.30;99.90;;;;;;5089597;28;20043;-65
2023/02/28 05:51:36;;;;;;;18.83;10.63;;;-2.30;99.90;;;;;;5088105;28;20036;-65
2023/02/28 05:54:03;;;;;;;17.17;10.30;;;-2.30;99.90;;;;;;5087439;28;20123;-64
2023/02/28 05:56:31;;;;;;;19.45;10.98;;;-2.30;99.90;;;;;;5089671;28;20043;-66
2023/02/28 05:58:58;;;;;;;97.65;19.58;;;-2.30;99.90;;;;;;5089561;28;20044;-65
2023/02/28 06:01:50;;;;;;;45.75;15.15;;;-2.30;99.90;;;;;;5088594;28;20267;-65
2023/02/28 06:04:19;;;;;;;23.90;11.27;;;-2.20;99.90;;;;;;5091606;28;20490;-65
2023/02/28 06:06:58;;;;;;;21.55;11.65;;;-2.20;99.90;;;;;;5091476;28;20533;-65
2023/02/28 06:09:25;;;;;;;20.85;11.15;;;-2.20;99.90;;;;;;5100936;28;20508;-67
2023/02/28 06:11:53;;;;;;;16.85;10.20;;;-2.10;99.90;;;;;;5088839;28;20055;-68
2023/02/28 06:14:21;;;;;;;16.88;9.57;;;-2.10;99.90;;;;;;5089833;28;20228;-68
2023/02/28 06:16:48;;;;;;;21.63;10.50;;;-2.20;99.90;;;;;;5087480;28;20050;-67
2023/02/28 06:19:16;;;;;;;15.73;9.98;;;-2.20;99.90;;;;;;5095023;28;20066;-68
2023/02/28 06:21:43;;;;;;;19.30;10.43;;;-2.20;99.90;;;;;;5093039;28;20071;-68
2023/02/28 06:24:11;;;;;;;19.05;11.15;;;-2.10;99.90;;;;;;5087732;28;20526;-68
2023/02/28 06:26:38;;;;;;;20.80;11.18;;;-2.00;99.90;;;;;;5088815;28;20071;-67
2023/02/28 06:29:05;;;;;;;20.00;10.38;;;-2.00;99.90;;;;;;5089094;28;20044;-67
2023/02/28 06:31:32;;;;;;;14.95;9.88;;;-1.90;99.90;;;;;;5087756;28;20561;-68
2023/02/28 06:34:00;;;;;;;18.98;10.57;;;-1.90;99.90;;;;;;5094478;28;20411;-67
2023/02/28 06:36:28;;;;;;;19.15;11.27;;;-1.80;99.90;;;;;;5098231;28;20135;-67
2023/02/28 06:38:55;;;;;;;19.33;10.52;;;-1.70;99.90;;;;;;5088526;28;20044;-66
2023/02/28 06:41:25;;;;;;;17.70;9.90;;;-1.70;99.90;;;;;;5091684;28;20048;-67
2023/02/28 06:43:53;;;;;;;18.80;10.38;;;-1.60;99.90;;;;;;5094444;28;20047;-68
2023/02/28 06:46:21;;;;;;;19.13;10.30;;;-1.60;99.90;;;;;;5092503;28;20425;-67
2023/02/28 06:48:48;;;;;;;14.82;9.15;;;-1.50;99.90;;;;;;5092994;28;20201;-66
2023/02/28 06:51:20;;;;;;;20.55;10.50;;;-1.50;99.90;;;;;;5092347;28;20159;-66
2023/02/28 06:53:47;;;;;;;59.05;13.48;;;-1.40;99.90;;;;;;5094843;28;20436;-67
2023/02/28 06:56:17;;;;;;;21.98;11.07;;;-1.40;99.90;;;;;;5102315;28;20051;-67
2023/02/28 06:58:52;;;;;;;21.13;10.23;;;-1.30;99.90;;;;;;5101812;28;20043;-67
2023/02/28 07:01:20;;;;;;;17.48;9.82;;;-1.20;99.90;;;;;;5089341;28;20043;-67
2023/02/28 07:03:52;;;;;;;17.00;9.20;;;-1.20;99.90;;;;;;5091727;28;20040;-67
2023/02/28 07:06:24;;;;;;;19.77;9.82;;;-1.10;99.90;;;;;;5094230;28;20562;-67
2023/02/28 07:08:52;;;;;;;17.30;10.75;;;-1.00;99.90;;;;;;5090818;28;20065;-67
2023/02/28 07:11:22;;;;;;;17.33;9.27;;;-0.90;99.90;;;;;;5094136;28;20127;-66
2023/02/28 07:13:50;;;;;;;15.10;9.15;;;-0.90;99.90;;;;;;5102895;28;20060;-67
2023/02/28 07:16:18;;;;;;;18.52;10.18;;;-0.80;99.90;;;;;;5092556;28;20043;-66
2023/02/28 07:18:45;;;;;;;24.02;11.52;;;-0.70;99.90;;;;;;5091386;28;20032;-67
2023/02/28 07:21:13;;;;;;;20.73;10.15;;;-0.70;99.90;;;;;;5091384;28;20055;-67
2023/02/28 07:23:41;;;;;;;15.55;10.50;;;-0.50;99.90;;;;;;5095215;28;20044;-69
2023/02/28 07:26:15;;;;;;;15.00;9.65;;;-0.50;99.90;;;;;;5089429;28;20044;-66
2023/02/28 07:28:43;;;;;;;20.25;10.80;;;-0.40;99.90;;;;;;5089950;28;20044;-68
2023/02/28 07:31:11;;;;;;;19.42;10.25;;;-0.30;99.90;;;;;;5090375;28;20143;-68
2023/02/28 07:33:38;;;;;;;18.83;9.30;;;-0.30;99.90;;;;;;5104788;28;20410;-67
2023/02/28 07:36:15;;;;;;;19.10;10.50;;;-0.20;99.90;;;;;;5091283;28;20051;-67
2023/02/28 07:38:44;;;;;;;14.45;9.93;;;-0.10;99.90;;;;;;5091518;28;20040;-66
2023/02/28 07:41:15;;;;;;;;;;;-0.10;99.90;;;;;;5091339;28;20475;-67
2023/02/28 07:43:44;;;;;;;16.48;10.30;;;0.00;99.90;;;;;;5091659;28;20366;-66
2023/02/28 07:46:14;;;;;;;18.58;10.73;;;0.00;99.90;;;;;;5089970;28;20337;-67
2023/02/28 07:48:43;;;;;;;20.80;10.55;;;0.10;99.90;;;;;;5089808;28;20372;-67
2023/02/28 07:51:10;;;;;;;15.45;10.43;;;0.30;99.90;;;;;;5088827;28;20514;-66
2023/02/28 07:53:38;;;;;;;17.95;10.65;;;0.40;99.90;;;;;;5089169;28;20060;-69
2023/02/28 07:56:06;;;;;;;19.23;11.32;;;0.50;99.90;;;;;;5090236;28;20384;-66
2023/02/28 07:58:33;;;;;;;17.85;9.95;;;0.60;99.90;;;;;;5094598;28;20055;-67
2023/02/28 08:01:08;;;;;;;16.83;10.43;;;0.70;99.90;;;;;;5101960;28;20497;-68
2023/02/28 08:03:36;;;;;;;17.98;10.93;;;0.70;99.90;;;;;;5090121;28;20040;-67
2023/02/28 08:06:05;;;;;;;16.85;10.38;;;0.80;99.90;;;;;;5106144;28;20054;-67
2023/02/28 08:08:32;;;;;;;19.33;9.80;;;0.90;99.90;;;;;;5107914;28;20426;-67
2023/02/28 08:11:01;;;;;;;15.88;10.07;;;1.10;99.90;;;;;;5094497;28;20528;-67
2023/02/28 08:13:30;;;;;;;16.73;11.15;;;1.10;99.90;;;;;;5110413;28;20047;-67
2023/02/28 08:15:57;;;;;;;20.98;11.18;;;1.10;99.90;;;;;;5110584;28;20147;-67
2023/02/28 08:18:24;;;;;;;16.98;10.57;;;1.10;99.90;;;;;;5109811;28;20123;-67
2023/02/28 08:20:52;;;;;;;16.83;11.18;;;1.20;99.90;;;;;;5095272;28;20143;-67
2023/02/28 08:23:19;;;;;;;14.82;10.88;;;1.30;99.90;;;;;;5090853;28;20055;-67
2023/02/28 08:25:54;;;;;;;17.55;10.77;;;1.30;99.90;;;;;;5090669;28;20091;-67
2023/02/28 08:28:22;;;;;;;17.02;10.23;;;1.40;99.90;;;;;;5089188;28;20457;-69
2023/02/28 08:30:54;;;;;;;17.00;10.70;;;1.50;99.90;;;;;;5090533;28;20415;-67
2023/02/28 08:33:22;;;;;;;15.30;10.35;;;1.50;99.90;;;;;;5088887;28;20064;-68
2023/02/28 08:35:56;;;;;;;15.70;10.50;;;1.60;99.90;;;;;;5089490;28;20491;-67
2023/02/28 08:38:23;;;;;;;15.95;11.07;;;1.70;99.90;;;;;;5089645;28;20093;-69
2023/02/28 08:40:58;;;;;;;13.82;10.70;;;1.70;99.90;;;;;;5089955;28;20360;-68
2023/02/28 08:43:26;;;;;;;16.73;10.80;;;1.70;99.90;;;;;;5092273;28;20384;-64
2023/02/28 08:45:56;;;;;;;19.38;11.27;;;1.80;99.90;;;;;;5088088;28;20480;-67
2023/02/28 08:48:25;;;;;;;19.38;11.27;;;1.90;99.90;;;;;;5101585;28;20039;-68
2023/02/28 08:51:09;;;;;;;18.60;10.95;;;2.00;99.90;;;;;;5109907;28;20062;-67
2023/02/28 08:53:37;;;;;;;18.48;11.43;;;2.00;99.90;;;;;;5108743;28;20039;-68
2023/02/28 08:56:13;;;;;;;23.25;13.23;;;1.90;99.90;;;;;;5100510;28;20524;-68
2023/02/28 08:58:40;;;;;;;20.35;10.80;;;2.10;99.90;;;;;;5090306;28;20388;-68
2023/02/28 09:01:28;;;;;;;14.25;10.32;;;2.20;99.90;;;;;;5088453;28;20052;-68
2023/02/28 09:03:57;;;;;;;18.25;11.13;;;2.20;99.90;;;;;;5088392;28;20390;-67
2023/02/28 09:06:26;;;;;;;17.00;11.18;;;2.40;99.90;;;;;;5097019;28;20066;-67
2023/02/28 09:08:59;;;;;;;16.70;10.95;;;2.50;99.90;;;;;;5089386;28;20052;-65
2023/02/28 09:11:26;;;;;;;14.13;10.20;;;2.50;99.90;;;;;;5088119;28;20036;-67
2023/02/28 09:13:55;;;;;;;15.57;11.13;;;2.60;99.90;;;;;;5087682;28;20047;-67
2023/02/28 09:16:22;;;;;;;18.10;11.48;;;2.70;99.90;;;;;;5088489;28;20036;-67
2023/02/28 09:18:50;;;;;;;15.68;11.40;;;2.70;99.90;;;;;;5089207;28;20040;-67
2023/02/28 09:21:19;;;;;;;14.73;10.80;;;2.70;99.90;;;;;;5086619;28;20040;-67
2023/02/28 09:23:48;;;;;;;17.75;11.45;;;2.80;99.90;;;;;;5088424;28;20052;-68
2023/02/28 09:26:25;;;;;;;16.55;11.35;;;2.90;99.90;;;;;;5088130;28;20422;-68
2023/02/28 09:28:53;;;;;;;15.27;10.70;;;3.00;99.90;;;;;;5088902;28;20036;-68
2023/02/28 09:31:23;;;;;;;16.75;11.70;;;3.00;99.90;;;;;;5088556;28;20506;-67
2023/02/28 09:33:52;;;;;;;16.92;11.20;;;3.10;99.90;;;;;;5088621;28;20485;-67
2023/02/28 09:36:20;;;;;;;16.90;12.18;;;3.20;99.90;;;;;;5088764;28;20090;-68
2023/02/28 09:38:52;;;;;;;17.10;10.98;;;3.30;99.90;;;;;;5088715;28;20043;-68
2023/02/28 09:41:25;;;;;;;15.65;11.05;;;3.40;99.90;;;;;;5087474;28;20078;-66
2023/02/28 09:43:56;;;;;;;14.77;10.30;;;3.60;99.90;;;;;;5090693;28;20468;-68
2023/02/28 09:46:40;;;;;;;18.05;11.85;;;3.70;99.90;;;;;;5086363;28;20441;-67
2023/02/28 09:49:22;;;;;;;17.75;11.85;;;3.60;99.90;;;;;;5107254;28;20424;-68
2023/02/28 09:52:09;;;;;;;18.23;11.45;;;3.70;99.90;;;;;;5096202;28;20036;-68
2023/02/28 09:54:37;;;;;;;14.40;10.40;;;3.70;99.90;;;;;;5101318;28;20063;-68
2023/02/28 09:57:26;;;;;;;19.63;12.35;;;3.60;99.90;;;;;;5093064;28;20510;-68
2023/02/28 10:00:18;;;;;;;15.85;11.02;;;3.80;99.90;;;;;;5090049;28;20044;-66
2023/02/28 10:03:24;;;;;;;15.15;11.13;;;4.00;99.90;;;;;;5078027;28;20036;-66
2023/02/28 10:06:04;;;;;;;14.35;10.43;;;4.00;99.90;;;;;;5102069;28;20490;-67
2023/02/28 10:08:32;;;;;;;28.83;11.93;;;4.20;99.90;;;;;;5095706;28;20038;-68
2023/02/28 10:11:04;;;;;;;14.90;9.85;;;4.30;99.90;;;;;;5087126;28;20595;-68
2023/02/28 10:14:08;;;;;;;15.43;11.13;;;4.50;99.90;;;;;;5089218;28;20407;-68
2023/02/28 10:16:51;;;;;;;15.57;10.88;;;4.60;99.90;;;;;;5104501;28;20051;-68
2023/02/28 10:19:32;;;;;;;16.70;11.15;;;4.90;99.90;;;;;;5099469;28;20530;-68
2023/02/28 10:22:19;;;;;;;18.95;10.73;;;5.20;99.90;;;;;;5092182;28;20046;-67
2023/02/28 10:24:48;;;;;;;18.10;11.93;;;5.50;99.90;;;;;;5094847;28;20518;-68
2023/02/28 10:27:21;;;;;;;14.35;10.88;;;5.80;99.90;;;;;;5101451;28;20055;-65
2023/02/28 10:29:57;;;;;;;22.95;11.75;;;5.90;99.90;;;;;;5080386;28;20063;-68
2023/02/28 10:32:34;;;;;;;13.02;10.18;;;6.20;99.90;;;;;;5097845;28;20036;-67
2023/02/28 10:35:21;;;;;;;14.57;10.85;;;6.50;99.90;;;;;;5109187;28;20499;-68
2023/02/28 10:37:56;;;;;;;15.18;10.18;;;6.70;99.90;;;;;;5101700;28;20137;-68
2023/02/28 10:40:23;;;;;;;15.35;10.45;;;6.80;99.90;;;;;;5095281;28;20063;-67
2023/02/28 10:43:05;;;;;;;12.80;9.93;;;6.90;99.90;;;;;;5096212;28;20036;-68
2023/02/28 10:45:36;;;;;;;15.27;10.48;;;6.90;99.90;;;;;;5092680;28;20047;-68
2023/02/28 10:48:06;;;;;;;16.40;11.43;;;7.10;99.90;;;;;;5090592;28;20044;-68
2023/02/28 10:50:44;;;;;;;16.08;11.82;;;7.20;99.90;;;;;;5100316;28;20361;-67
2023/02/28 10:53:14;;;;;;;18.95;13.13;;;7.30;99.90;;;;;;5101404;28;20040;-67
2023/02/28 10:55:43;;;;;;;19.63;12.52;;;7.40;99.90;;;;;;5091374;28;20394;-68
2023/02/28 10:58:24;;;;;;;16.95;11.63;;;7.30;99.90;;;;;;5089584;28;20048;-67
2023/02/28 11:00:52;;;;;;;16.90;10.98;;;7.20;99.90;;;;;;5100696;28;20043;-68
2023/02/28 11:03:30;;;;;;;14.50;10.48;;;7.60;99.90;;;;;;5091389;28;20418;-68
2023/02/28 11:06:04;;;;;;;13.25;10.50;;;7.80;99.90;;;;;;5090497;28;20036;-68
2023/02/28 11:08:31;;;;;;;12.65;10.20;;;7.60;99.90;;;;;;5091853;28;20047;-70
2023/02/28 11:11:04;;;;;;;17.02;11.77;;;7.80;99.90;;;;;;5096050;28;20443;-68
2023/02/28 11:13:37;;;;;;;15.32;11.07;;;8.10;99.90;;;;;;5096124;28;20046;-69
2023/02/28 11:16:09;;;;;;;14.27;10.73;;;7.70;99.90;;;;;;5099635;28;20411;-67
2023/02/28 11:18:55;;;;;;;14.30;10.85;;;8.20;99.90;;;;;;5101535;28;20474;-69
2023/02/28 11:21:39;;;;;;;14.85;10.38;;;8.00;99.90;;;;;;5088331;28;20051;-67
2023/02/28 11:24:19;;;;;;;13.25;10.60;;;8.10;99.90;;;;;;5091075;28;20047;-68
2023/02/28 11:26:48;;;;;;;14.20;10.75;;;8.20;99.90;;;;;;5088997;28;20166;-68
2023/02/28 11:29:23;;;;;;;12.85;10.45;;;8.60;99.90;;;;;;5073333;28;20036;-67
2023/02/28 11:32:07;;;;;;;15.63;10.40;;;8.80;99.90;;;;;;5090239;28;20039;-67
2023/02/28 11:34:37;;;;;;;15.25;11.13;;;8.80;99.90;;;;;;5099056;28;20036;-69
2023/02/28 11:37:11;;;;;;;14.07;10.60;;;9.20;99.90;;;;;;5094572;28;20401;-69
2023/02/28 11:39:38;;;;;;;13.88;9.93;;;9.40;99.90;;;;;;5086270;28;20118;-69
2023/02/28 11:42:32;;;;;;;13.77;10.40;;;9.60;99.60;;;;;;5103796;28;20044;-68
2023/02/28 11:45:27;;;;;;;14.82;11.00;;;9.80;99.20;;;;;;5093917;28;20092;-69
2023/02/28 11:48:42;;;;;;;12.52;9.82;;;10.00;98.40;;;;;;5089791;28;20055;-69
2023/02/28 11:51:23;;;;;;;14.43;11.02;;;10.40;98.50;;;;;;5055456;28;20422;-68
2023/02/28 11:53:58;;;;;;;14.45;10.52;;;10.50;97.10;;;;;;5090202;28;20040;-69
2023/02/28 11:56:37;;;;;;;12.30;10.73;;;10.60;97.60;;;;;;5092761;28;20460;-69
2023/02/28 11:59:43;;;;;;;15.20;11.50;;;10.90;96.70;;;;;;5103983;28;20044;-70
2023/02/28 12:02:22;;;;;;;17.63;12.00;;;11.40;95.80;;;;;;5101057;28;20506;-67
2023/02/28 12:05:14;;;;;;;15.98;10.55;;;10.90;95.10;;;;;;5095704;28;20043;-70
2023/02/28 12:08:00;;;;;;;14.55;10.43;;;11.30;94.90;;;;;;5091122;28;20055;-69
2023/02/28 12:10:38;;;;;;;14.10;10.50;;;11.60;94.70;;;;;;5091039;28;20063;-68
2023/02/28 12:13:35;;;;;;;12.60;10.25;;;11.90;93.70;;;;;;5089038;28;20490;-68
2023/02/28 12:16:27;;;;;;;15.00;10.38;;;12.00;93.80;;;;;;5087609;28;20047;-69
2023/02/28 12:19:16;;;;;;;14.02;10.20;;;12.30;93.10;;;;;;5091199;28;20052;-67
2023/02/28 12:22:11;;;;;;;16.80;10.15;;;12.60;92.30;;;;;;5093443;28;20044;-70
2023/02/28 12:25:09;;;;;;;15.70;10.57;;;12.70;91.10;;;;;;5090080;28;20047;-66
2023/02/28 12:27:42;;;;;;;13.70;10.20;;;12.30;91.20;;;;;;5089221;28;20490;-69
2023/02/28 12:30:25;;;;;;;13.93;10.10;;;12.60;90.30;;;;;;5091100;28;20493;-68
2023/02/28 12:33:11;;;;;;;13.93;10.82;;;12.80;90.10;;;;;;5090372;28;20036;-69
2023/02/28 12:35:58;;;;;;;13.27;10.40;;;12.90;90.00;;;;;;5089751;28;20044;-68
2023/02/28 12:38:31;;;;;;;14.95;11.20;;;12.90;89.80;;;;;;5090116;28;20498;-68
2023/02/28 12:41:16;;;;;;;14.68;11.05;;;12.80;88.40;;;;;;5090255;28;20131;-68
2023/02/28 12:43:58;;;;;;;12.82;10.43;;;13.30;88.30;;;;;;5094131;28;20460;-69
2023/02/28 12:46:34;;;;;;;12.70;10.63;;;13.50;85.00;;;;;;5088708;28;20050;-68
2023/02/28 12:49:08;;;;;;;14.75;10.88;;;13.90;84.20;;;;;;5098692;28;20596;-70
2023/02/28 12:51:36;;;;;;;16.27;11.65;;;14.50;83.70;;;;;;5106162;28;20063;-68
2023/02/28 12:54:16;;;;;;;12.50;10.68;;;15.00;81.80;;;;;;5090620;28;20561;-68
2023/02/28 12:56:49;;;;;;;13.65;11.30;;;15.50;78.90;;;;;;5098105;28;20108;-68
2023/02/28 12:59:41;;;;;;;11.98;10.60;;;16.30;76.90;;;;;;5089933;28;20075;-70
2023/02/28 13:02:13;;;;;;;13.75;11.13;;;17.40;75.30;;;;;;5090229;28;20501;-69
2023/02/28 13:05:15;;;;;;;12.70;10.00;;;18.40;71.00;;;;;;5090225;28;20067;-70
2023/02/28 13:08:10;;;;;;;11.27;10.10;;;18.60;68.30;;;;;;5097884;28;20044;-69